Time;durP1;ratioP1;P1;durP2;ratioP2;P2;SDS_P1;SDS_P2;PMS_P1;PMS_P2;Temp;Humidity;BMP_temperature;BMP_pressure;BME280_temperature;BME280_humidity;BME280_pressure;Samples;Min_cycle;Max_cycle;Signal;HPM_P1;HPM_P2
2021/05/29 10:21:57;;;;;;;1.80;1.33;;;;;;;;;;7140989;27;20580;-81
2021/05/29 10:25:20;;;;;;;5.05;1.20;;;;;;;;;;7111014;27;20039;-84
2021/05/29 10:28:41;;;;;;;4.40;1.10;;;;;;;;;;7089640;27;20145;-83
2021/05/29 10:32:12;;;;;;;1.10;1.00;;;;;;;;;;7129789;27;20046;-82
2021/05/29 10:35:38;;;;;;;4.05;1.00;;;;;;;;;;7131099;27;20421;-83
2021/05/29 10:38:58;;;;;;;2.80;1.08;;;;;;;;;;7108702;27;20038;-84
2021/05/29 10:42:30;;;;;;;6.43;1.10;;;;;;;;;;7108371;27;20056;-86
2021/05/29 10:45:51;;;;;;;4.70;1.27;;;;;;;;;;7128595;27;20054;-82
2021/05/29 10:49:11;;;;;;;2.08;1.33;;;;;;;;;;7122587;27;20057;-85
2021/05/29 10:52:36;;;;;;;3.17;1.20;;;;;;;;;;7112000;27;20365;-80
2021/05/29 10:56:15;;;;;;;1.23;1.10;;;;;;;;;;7108535;27;20381;-81
2021/05/29 10:59:38;;;;;;;;;;;;;;;;;;7119790;27;20050;-80
2021/05/29 11:03:17;;;;;;;2.08;1.13;;;;;;;;;;7122366;27;20877;-81
2021/05/29 11:06:38;;;;;;;1.10;0.98;;;;;;;;;;7119489;27;20039;-80
2021/05/29 11:09:59;;;;;;;1.30;1.10;;;;;;;;;;7123030;27;20035;-81
2021/05/29 11:13:57;;;;;;;2.63;1.02;;;;;;;;;;7121454;27;20118;-81
2021/05/29 11:17:19;;;;;;;3.05;1.10;;;;;;;;;;7121321;27;20035;-81
2021/05/29 11:21:05;;;;;;;2.92;1.30;;;;;;;;;;7094049;27;20034;-81
2021/05/29 11:24:33;;;;;;;1.65;1.05;;;;;;;;;;7118007;27;20057;-81
2021/05/29 11:27:54;;;;;;;4.03;1.02;;;;;;;;;;7102703;27;20043;-81
2021/05/29 11:31:15;;;;;;;1.30;1.20;;;;;;;;;;7094986;27;20409;-80
2021/05/29 11:34:42;;;;;;;2.60;1.10;;;;;;;;;;7104260;27;20050;-80
2021/05/29 11:38:25;;;;;;;2.08;1.30;;;;;;;;;;7102082;27;20047;-80
2021/05/29 11:41:45;;;;;;;1.50;1.00;;;;;;;;;;7102499;27;20051;-81
2021/05/29 11:45:19;;;;;;;1.63;0.85;;;;;;;;;;7105767;27;20369;-80
2021/05/29 11:48:47;;;;;;;5.85;1.23;;;;;;;;;;7093101;27;20039;-81
2021/05/29 11:52:08;;;;;;;2.40;1.30;;;;;;;;;;7097816;27;20042;-81
2021/05/29 11:55:28;;;;;;;2.05;1.02;;;;;;;;;;7104711;27;20129;-81
2021/05/29 11:58:53;;;;;;;0.68;0.68;;;;;;;;;;7079335;27;20046;-80
2021/05/29 12:02:13;;;;;;;1.83;1.25;;;;;;;;;;7103451;27;20030;-80
2021/05/29 12:05:38;;;;;;;1.15;1.02;;;;;;;;;;7107200;27;20043;-80
2021/05/29 12:08:59;;;;;;;0.98;0.80;;;;;;;;;;7108863;27;20047;-80
2021/05/29 12:12:21;;;;;;;1.25;0.90;;;;;;;;;;7105521;27;20502;-81
2021/05/29 12:15:42;;;;;;;1.30;0.80;;;;;;;;;;7101043;27;20391;-81
2021/05/29 12:19:04;;;;;;;0.93;0.85;;;;;;;;;;7108593;27;20476;-81
2021/05/29 12:22:27;;;;;;;1.23;0.82;;;;;;;;;;7091204;27;20041;-81
2021/05/29 12:25:47;;;;;;;2.78;0.98;;;;;;;;;;7105651;27;20472;-80
2021/05/29 12:29:08;;;;;;;1.02;0.80;;;;;;;;;;7088703;27;20054;-81
2021/05/29 12:32:31;;;;;;;10.00;1.27;;;;;;;;;;7085342;22;20147;-81
2021/05/29 12:36:08;;;;;;;1.17;1.00;;;;;;;;;;7047067;28;20051;-81
2021/05/29 12:39:48;;;;;;;1.55;1.15;;;;;;;;;;7015375;28;20044;-81
2021/05/29 12:43:14;;;;;;;2.50;1.00;;;;;;;;;;7044200;28;20055;-81
2021/05/29 12:46:35;;;;;;;1.90;1.00;;;;;;;;;;7050370;28;20481;-81
2021/05/29 12:49:57;;;;;;;1.20;1.10;;;;;;;;;;7048914;28;20134;-81
2021/05/29 12:53:18;;;;;;;0.77;0.73;;;;;;;;;;7035198;28;20109;-80
2021/05/29 12:56:53;;;;;;;4.10;0.85;;;;;;;;;;7048860;28;20051;-81
2021/05/29 13:00:24;;;;;;;3.75;0.90;;;;;;;;;;7038796;28;20507;-81
2021/05/29 13:07:38;;;;;;;1.30;0.85;;;;;;;;;;7019530;28;20473;-80
2021/05/29 13:11:01;;;;;;;3.00;0.88;;;;;;;;;;7049942;28;20554;-81
2021/05/29 13:14:29;;;;;;;1.05;0.70;;;;;;;;;;7026225;28;20090;-81
2021/05/29 13:18:10;;;;;;;4.88;1.05;;;;;;;;;;7049108;28;20044;-80
2021/05/29 13:21:33;;;;;;;1.58;1.10;;;;;;;;;;7043852;28;20044;-83
2021/05/29 13:24:58;;;;;;;1.00;0.70;;;;;;;;;;7047037;28;20096;-81
2021/05/29 13:28:18;;;;;;;1.23;1.00;;;;;;;;;;7030073;28;20112;-81
2021/05/29 13:31:39;;;;;;;1.20;0.90;;;;;;;;;;7047109;28;20417;-81
2021/05/29 13:34:59;;;;;;;1.55;0.80;;;;;;;;;;7047000;28;20052;-81
2021/05/29 13:38:20;;;;;;;1.63;1.00;;;;;;;;;;7028120;28;20112;-81
2021/05/29 13:41:40;;;;;;;1.45;0.90;;;;;;;;;;7049616;28;20956;-81
2021/05/29 13:45:02;;;;;;;0.98;0.77;;;;;;;;;;7050426;28;20401;-80
2021/05/29 13:48:23;;;;;;;1.65;0.98;;;;;;;;;;7049498;28;20036;-81
2021/05/29 13:51:45;;;;;;;3.63;1.73;;;;;;;;;;7050746;28;20064;-81
2021/05/29 13:55:06;;;;;;;0.82;0.73;;;;;;;;;;7047502;28;20090;-81
2021/05/29 13:58:26;;;;;;;1.10;0.77;;;;;;;;;;7047328;28;20061;-81
2021/05/29 14:01:47;;;;;;;1.55;0.70;;;;;;;;;;7018645;28;20181;-81
2021/05/29 14:05:09;;;;;;;1.30;0.90;;;;;;;;;;7029444;28;20047;-81
2021/05/29 14:08:29;;;;;;;2.97;0.90;;;;;;;;;;7043842;28;20047;-81
2021/05/29 14:11:51;;;;;;;1.40;0.90;;;;;;;;;;7047310;28;20047;-80
2021/05/29 14:15:12;;;;;;;0.93;0.80;;;;;;;;;;7022334;28;20062;-80
2021/05/29 14:18:34;;;;;;;1.33;0.98;;;;;;;;;;7047474;28;20070;-81
2021/05/29 14:21:54;;;;;;;2.30;0.95;;;;;;;;;;7038353;28;20127;-81
2021/05/29 14:25:15;;;;;;;2.72;0.90;;;;;;;;;;7046560;28;20063;-82
2021/05/29 14:28:36;;;;;;;1.00;0.90;;;;;;;;;;7050389;28;20381;-80
2021/05/29 14:31:56;;;;;;;2.90;1.02;;;;;;;;;;7032260;28;20051;-81
2021/05/29 14:35:17;;;;;;;3.65;0.95;;;;;;;;;;7047568;28;20054;-81
2021/05/29 14:38:37;;;;;;;4.30;0.80;;;;;;;;;;7049739;28;20142;-81
2021/05/29 14:41:58;;;;;;;3.22;0.73;;;;;;;;;;7039437;28;20401;-81
2021/05/29 14:45:19;;;;;;;2.60;1.17;;;;;;;;;;7022135;28;20036;-81
2021/05/29 14:48:39;;;;;;;0.95;0.82;;;;;;;;;;7046849;28;20189;-81
2021/05/29 14:51:59;;;;;;;1.65;1.13;;;;;;;;;;7046667;28;20040;-81
2021/05/29 14:55:20;;;;;;;3.58;0.85;;;;;;;;;;7029672;28;20044;-81
2021/05/29 14:58:40;;;;;;;1.35;0.73;;;;;;;;;;7044965;28;20035;-81
2021/05/29 15:02:03;;;;;;;2.75;0.93;;;;;;;;;;7033448;28;20048;-81
2021/05/29 15:05:23;;;;;;;1.77;0.85;;;;;;;;;;7049649;28;20134;-81
2021/05/29 15:08:43;;;;;;;2.38;1.20;;;;;;;;;;7050074;28;20040;-82
2021/05/29 15:12:04;;;;;;;1.83;1.25;;;;;;;;;;7053670;28;20052;-81
2021/05/29 15:15:25;;;;;;;3.40;1.20;;;;;;;;;;7048321;28;20040;-88
2021/05/29 15:18:46;;;;;;;4.75;1.50;;;;;;;;;;7038229;28;20048;-89
2021/05/29 15:22:06;;;;;;;5.82;1.33;;;;;;;;;;7052646;28;20040;-89
2021/05/29 15:25:30;;;;;;;6.63;1.10;;;;;;;;;;7053868;28;20428;-85
2021/05/29 15:28:51;;;;;;;5.18;1.35;;;;;;;;;;7053829;28;20067;-82
2021/05/29 15:32:12;;;;;;;7.38;2.00;;;;;;;;;;7041812;28;20092;-84
2021/05/29 15:35:32;;;;;;;7.72;2.53;;;;;;;;;;7038204;28;20052;-84
2021/05/29 15:38:53;;;;;;;8.77;2.92;;;;;;;;;;7052430;28;20059;-89
2021/05/29 15:42:13;;;;;;;5.28;3.40;;;;;;;;;;7052897;28;20048;-84
2021/05/29 15:45:34;;;;;;;9.60;3.80;;;;;;;;;;7045909;28;20070;-85
2021/05/29 15:48:55;;;;;;;7.97;3.85;;;;;;;;;;7038057;28;20051;-85
2021/05/29 15:52:15;;;;;;;9.50;3.80;;;;;;;;;;7055961;28;20043;-83
2021/05/29 15:55:36;;;;;;;5.70;3.83;;;;;;;;;;7053945;28;20046;-83
2021/05/29 15:58:56;;;;;;;20.85;3.38;;;;;;;;;;7051811;28;20097;-83
2021/05/29 16:02:17;;;;;;;5.72;2.72;;;;;;;;;;7035257;28;20044;-81
2021/05/29 16:05:38;;;;;;;3.92;2.90;;;;;;;;;;7050948;28;20131;-82
2021/05/29 16:08:58;;;;;;;5.10;3.80;;;;;;;;;;7051685;28;20047;-87
2021/05/29 16:12:20;;;;;;;4.43;3.22;;;;;;;;;;7053271;28;20044;-84
2021/05/29 16:15:41;;;;;;;7.80;3.10;;;;;;;;;;7049686;28;20052;-85
2021/05/29 16:19:02;;;;;;;13.48;4.10;;;;;;;;;;7031496;28;20097;-88
2021/05/29 16:22:23;;;;;;;52.35;4.55;;;;;;;;;;7050938;28;20046;-83
2021/05/29 16:25:43;;;;;;;19.13;3.40;;;;;;;;;;7030964;28;20075;-81
2021/05/29 16:29:03;;;;;;;39.05;3.80;;;;;;;;;;7051141;28;20408;-80
2021/05/29 16:32:26;;;;;;;35.78;3.03;;;;;;;;;;7031355;28;20058;-81
2021/05/29 16:35:50;;;;;;;26.33;2.80;;;;;;;;;;7043167;28;20040;-83
2021/05/29 16:39:10;;;;;;;24.42;2.78;;;;;;;;;;7049763;28;20055;-81
2021/05/29 16:42:30;;;;;;;20.70;2.70;;;;;;;;;;7052634;28;20409;-81
2021/05/29 16:45:52;;;;;;;10.45;2.30;;;;;;;;;;7044294;28;20043;-82
2021/05/29 16:49:12;;;;;;;27.92;2.00;;;;;;;;;;7026584;28;20056;-81
2021/05/29 16:52:33;;;;;;;14.95;2.47;;;;;;;;;;7045547;28;20128;-80
2021/05/29 16:55:55;;;;;;;13.15;1.83;;;;;;;;;;7053807;28;20501;-81
2021/05/29 16:59:15;;;;;;;8.27;1.80;;;;;;;;;;7032724;28;20062;-81
2021/05/29 17:02:36;;;;;;;5.75;1.40;;;;;;;;;;7050992;28;20043;-83
2021/05/29 17:05:59;;;;;;;11.35;2.13;;;;;;;;;;7051582;28;20047;-83
2021/05/29 17:09:24;;;;;;;9.35;1.60;;;;;;;;;;7051824;28;20051;-82
2021/05/29 17:12:44;;;;;;;14.93;1.30;;;;;;;;;;7052175;28;20396;-81
2021/05/29 17:16:05;;;;;;;3.67;1.50;;;;;;;;;;7053077;28;20503;-82
2021/05/29 17:19:26;;;;;;;5.65;1.63;;;;;;;;;;6976963;28;20041;-80
2021/05/29 17:22:47;;;;;;;7.13;1.58;;;;;;;;;;7042987;28;20047;-82
2021/05/29 17:26:08;;;;;;;13.93;1.52;;;;;;;;;;7047239;28;20058;-81
2021/05/29 17:29:28;;;;;;;2.95;1.25;;;;;;;;;;7052193;28;20130;-81
2021/05/29 17:32:48;;;;;;;4.32;1.30;;;;;;;;;;7044476;28;20044;-85
2021/05/29 17:36:09;;;;;;;4.00;1.58;;;;;;;;;;7038700;28;20048;-82
2021/05/29 17:39:29;;;;;;;4.55;1.48;;;;;;;;;;7034052;28;20039;-82
2021/05/29 17:42:50;;;;;;;4.22;1.38;;;;;;;;;;7052030;28;20039;-82
2021/05/29 17:46:11;;;;;;;4.00;1.40;;;;;;;;;;7047753;28;20143;-82
2021/05/29 17:49:31;;;;;;;4.80;1.20;;;;;;;;;;7044333;28;20527;-84
2021/05/29 17:52:52;;;;;;;2.17;1.40;;;;;;;;;;7051594;28;20071;-82
2021/05/29 17:56:12;;;;;;;2.03;1.40;;;;;;;;;;7047016;28;20489;-84
2021/05/29 18:00:03;;;;;;;2.17;1.10;;;;;;;;;;7031582;28;20050;-83
2021/05/29 18:03:24;;;;;;;5.82;1.20;;;;;;;;;;7036677;28;20048;-83
2021/05/29 18:06:45;;;;;;;1.90;1.17;;;;;;;;;;7044117;28;20050;-82
2021/05/29 18:10:06;;;;;;;1.42;1.13;;;;;;;;;;7016233;28;20166;-83
2021/05/29 18:13:29;;;;;;;13.30;2.50;;;;;;;;;;7035979;28;20099;-84
2021/05/29 18:16:51;;;;;;;3.35;1.30;;;;;;;;;;7037463;28;20047;-83
2021/05/29 18:20:12;;;;;;;1.42;1.20;;;;;;;;;;7044834;28;20058;-83
2021/05/29 18:23:33;;;;;;;1.00;0.90;;;;;;;;;;7050085;28;20130;-84
2021/05/29 18:26:54;;;;;;;5.60;1.55;;;;;;;;;;7025730;28;20056;-83
2021/05/29 18:30:15;;;;;;;2.03;1.40;;;;;;;;;;7029683;28;20646;-84
2021/05/29 18:33:38;;;;;;;3.70;1.00;;;;;;;;;;7044206;28;20096;-84
2021/05/29 18:40:38;;;;;;;5.15;1.17;;;;;;;;;;7032495;28;20486;-83
2021/05/29 18:43:59;;;;;;;3.20;1.50;;;;;;;;;;7031613;28;20507;-84
2021/05/29 18:47:20;;;;;;;4.75;1.20;;;;;;;;;;7047427;28;20070;-84
2021/05/29 18:50:41;;;;;;;2.22;1.25;;;;;;;;;;7050003;28;20123;-84
2021/05/29 18:54:02;;;;;;;7.07;1.25;;;;;;;;;;7042274;28;20044;-84
2021/05/29 18:57:23;;;;;;;2.15;1.02;;;;;;;;;;7030408;28;20054;-84
2021/05/29 19:04:33;;;;;;;2.88;1.30;;;;;;;;;;7050496;28;20485;-83
2021/05/29 19:09:06;;;;;;;1.35;1.10;;;;;;;;;;7035491;28;20036;-83
2021/05/29 19:11:38;;;;;;;0.90;0.90;;;;;;;;;;7049045;28;20159;-83
2021/05/29 19:15:05;;;;;;;0.95;0.90;;;;;;;;;;7008571;28;20503;-84
2021/05/29 19:18:26;;;;;;;3.70;1.05;;;;;;;;;;7042881;28;20122;-83
2021/05/29 19:21:53;;;;;;;3.88;1.33;;;;;;;;;;7028610;28;20534;-81
2021/05/29 19:28:43;;;;;;;4.88;1.27;;;;;;;;;;7032246;28;20176;-84
2021/05/29 19:32:19;;;;;;;5.30;1.40;;;;;;;;;;7034991;28;20046;-83
2021/05/29 19:39:25;;;;;;;2.72;1.50;;;;;;;;;;7036850;28;20047;-82
2021/05/29 19:42:54;;;;;;;2.13;1.42;;;;;;;;;;7051611;28;20393;-82
2021/05/29 20:11:35;;;;;;;4.40;1.30;;;;;;;;;;7043673;28;20126;-82
2021/05/29 20:26:13;;;;;;;5.38;1.60;;;;;;;;;;6978745;28;20106;-82
2021/05/29 20:29:35;;;;;;;5.47;1.40;;;;;;;;;;6993331;28;20053;-82
2021/05/29 20:32:55;;;;;;;4.05;1.30;;;;;;;;;;6993695;28;20143;-83
2021/05/29 20:36:16;;;;;;;4.80;1.60;;;;;;;;;;6993363;28;20052;-82
2021/05/29 20:39:36;;;;;;;3.10;1.30;;;;;;;;;;6992188;28;20161;-82
2021/05/29 20:42:57;;;;;;;1.70;1.25;;;;;;;;;;6981089;28;20128;-82
2021/05/29 20:46:18;;;;;;;2.47;1.20;;;;;;;;;;6975955;28;20500;-82
2021/05/29 20:49:38;;;;;;;3.42;0.90;;;;;;;;;;6993746;28;20490;-82
2021/05/29 20:52:58;;;;;;;1.63;1.10;;;;;;;;;;6975324;28;20139;-82
2021/05/29 20:56:19;;;;;;;3.08;1.23;;;;;;;;;;6993104;28;20136;-82
2021/05/29 20:59:41;;;;;;;1.15;1.00;;;;;;;;;;7020390;28;20051;-83
2021/05/29 21:03:01;;;;;;;3.50;1.38;;;;;;;;;;7052189;28;20054;-82
2021/05/29 21:06:23;;;;;;;1.75;1.20;;;;;;;;;;7049549;28;20126;-81
2021/05/29 21:09:43;;;;;;;1.50;1.00;;;;;;;;;;7051131;28;20047;-82
2021/05/29 21:13:04;;;;;;;1.70;1.25;;;;;;;;;;7051580;28;20051;-80
2021/05/29 21:16:32;;;;;;;2.45;1.33;;;;;;;;;;7050177;28;20588;-80
2021/05/29 21:23:32;;;;;;;2.72;1.05;;;;;;;;;;7046493;28;20043;-80
2021/05/29 21:26:53;;;;;;;1.85;1.25;;;;;;;;;;7051556;28;20071;-79
2021/05/29 21:30:13;;;;;;;4.72;1.20;;;;;;;;;;7049481;28;20052;-80
2021/05/29 21:33:35;;;;;;;4.18;1.10;;;;;;;;;;7050998;28;20043;-80
2021/05/29 21:36:55;;;;;;;3.38;1.20;;;;;;;;;;7038547;28;20434;-80
2021/05/29 21:40:16;;;;;;;1.90;1.25;;;;;;;;;;7049230;28;20552;-86
2021/05/29 21:43:42;;;;;;;2.25;1.65;;;;;;;;;;7007562;28;20440;-84
2021/05/29 21:50:43;;;;;;;33.30;2.35;;;;;;;;;;7028333;28;20126;-82
2021/05/29 21:54:04;;;;;;;6.80;1.50;;;;;;;;;;7048388;28;20043;-79
2021/05/29 21:57:25;;;;;;;4.20;1.20;;;;;;;;;;7039732;28;20123;-78
2021/05/29 22:00:48;;;;;;;6.47;1.40;;;;;;;;;;7049015;28;20052;-80
2021/05/29 22:04:09;;;;;;;4.30;1.10;;;;;;;;;;7038949;28;20075;-79
2021/05/29 22:07:30;;;;;;;6.80;1.60;;;;;;;;;;7041127;28;20044;-79
2021/05/29 22:11:04;;;;;;;1.65;1.17;;;;;;;;;;7047295;28;20054;-79
2021/05/29 22:18:08;;;;;;;2.78;1.17;;;;;;;;;;7045057;28;20055;-80
2021/05/29 22:32:13;;;;;;;;;;;;;;;;;;7050358;28;20040;-79
2021/05/29 22:35:34;;;;;;;2.85;1.52;;;;;;;;;;7034976;28;20372;-79
2021/05/29 22:38:54;;;;;;;9.98;1.15;;;;;;;;;;7017646;28;20371;-79
2021/05/29 22:42:15;;;;;;;5.22;1.73;;;;;;;;;;7050498;28;20122;-79
2021/05/29 22:45:35;;;;;;;7.22;1.45;;;;;;;;;;7044941;28;20100;-79
2021/05/29 22:48:55;;;;;;;7.93;1.30;;;;;;;;;;7047560;28;20118;-79
2021/05/29 22:52:16;;;;;;;7.47;1.40;;;;;;;;;;7048587;28;20076;-79
2021/05/29 22:55:36;;;;;;;11.15;1.70;;;;;;;;;;7049310;28;20075;-78
2021/05/29 22:58:57;;;;;;;8.77;1.27;;;;;;;;;;7041084;28;20135;-80
2021/05/29 23:02:17;;;;;;;5.40;1.30;;;;;;;;;;7048174;28;20051;-79
2021/05/29 23:05:38;;;;;;;2.70;1.15;;;;;;;;;;7049504;28;20066;-79
2021/05/29 23:08:59;;;;;;;7.45;1.45;;;;;;;;;;7047782;28;20040;-79
2021/05/29 23:12:19;;;;;;;2.35;1.10;;;;;;;;;;7048947;28;20058;-81
2021/05/29 23:15:39;;;;;;;3.65;1.38;;;;;;;;;;7049252;28;20138;-81
2021/05/29 23:19:00;;;;;;;1.95;1.35;;;;;;;;;;7049502;28;20086;-79
2021/05/29 23:22:20;;;;;;;1.95;1.30;;;;;;;;;;7048436;28;20047;-80
2021/05/29 23:25:41;;;;;;;4.25;1.30;;;;;;;;;;7049534;28;20047;-79
2021/05/29 23:29:01;;;;;;;2.08;1.45;;;;;;;;;;7051589;28;20047;-79
2021/05/29 23:32:21;;;;;;;1.77;1.13;;;;;;;;;;7053979;28;20044;-80
2021/05/29 23:35:42;;;;;;;2.45;1.35;;;;;;;;;;7052985;28;20052;-80
2021/05/29 23:39:03;;;;;;;1.80;1.20;;;;;;;;;;7030710;28;20489;-79
2021/05/29 23:42:23;;;;;;;7.25;1.23;;;;;;;;;;7035217;28;20088;-80
2021/05/29 23:45:43;;;;;;;2.05;1.17;;;;;;;;;;7033944;28;20044;-81
2021/05/29 23:49:04;;;;;;;0.93;0.93;;;;;;;;;;7053488;28;20042;-81
2021/05/29 23:52:24;;;;;;;2.53;1.20;;;;;;;;;;7049691;28;20135;-79
2021/05/29 23:55:45;;;;;;;2.05;1.20;;;;;;;;;;7042034;28;20101;-78
2021/05/29 23:59:05;;;;;;;2.75;1.10;;;;;;;;;;7052826;28;20053;-78
